Time;durP1;ratioP1;P1;durP2;ratioP2;P2;SDS_P1;SDS_P2;PMS_P1;PMS_P2;Temp;Humidity;BMP_temperature;BMP_pressure;BME280_temperature;BME280_humidity;BME280_pressure;Samples;Min_cycle;Max_cycle;Signal;HPM_P1;HPM_P2
2021/10/15 00:00:24;;;;;;;6.82;6.13;;;15.40;73.90;;;;;;5007975;28;20284;-76
2021/10/15 00:02:50;;;;;;;5.72;5.18;;;15.40;74.00;;;;;;5023676;28;20033;-77
2021/10/15 00:05:16;;;;;;;7.55;6.10;;;15.40;74.00;;;;;;4991603;28;20034;-77
2021/10/15 00:07:42;;;;;;;5.63;5.13;;;15.40;74.10;;;;;;4988840;28;20537;-76
2021/10/15 00:10:08;;;;;;;7.10;5.05;;;15.40;74.10;;;;;;5006670;28;20083;-76
2021/10/15 00:12:34;;;;;;;4.95;4.53;;;15.40;74.10;;;;;;5007824;28;20042;-76
2021/10/15 00:15:03;;;;;;;7.25;5.03;;;15.40;74.10;;;;;;4994067;28;20113;-76
2021/10/15 00:17:29;;;;;;;4.78;4.28;;;15.40;74.10;;;;;;4988082;28;20038;-76
2021/10/15 00:19:55;;;;;;;6.32;4.68;;;15.40;74.20;;;;;;5003311;28;20026;-76
2021/10/15 00:22:21;;;;;;;7.82;4.88;;;15.50;74.40;;;;;;5008335;28;20033;-76
2021/10/15 00:24:47;;;;;;;5.38;4.15;;;15.50;74.90;;;;;;4995690;28;20043;-76
2021/10/15 00:27:13;;;;;;;5.75;4.32;;;15.50;74.30;;;;;;5003108;28;20137;-76
2021/10/15 00:29:39;;;;;;;5.70;4.97;;;15.50;74.40;;;;;;5002446;28;20160;-76
2021/10/15 00:32:06;;;;;;;9.07;4.72;;;15.50;74.30;;;;;;5006811;28;20047;-76
2021/10/15 00:34:32;;;;;;;6.85;4.82;;;15.50;74.30;;;;;;4998126;28;20042;-77
2021/10/15 00:36:58;;;;;;;4.45;4.05;;;15.50;74.30;;;;;;5003219;28;20422;-77
2021/10/15 00:39:24;;;;;;;5.22;4.00;;;15.50;74.30;;;;;;4987971;28;20117;-76
2021/10/15 00:41:50;;;;;;;4.80;3.88;;;15.50;74.30;;;;;;4987416;28;20042;-77
2021/10/15 00:44:16;;;;;;;5.97;3.63;;;15.50;74.30;;;;;;4993793;28;20034;-76
2021/10/15 00:46:43;;;;;;;5.93;3.83;;;15.50;74.30;;;;;;5007081;28;20057;-77
2021/10/15 00:49:11;;;;;;;5.47;3.88;;;15.50;74.40;;;;;;4996457;28;20034;-77
2021/10/15 00:51:37;;;;;;;5.30;3.45;;;15.50;74.40;;;;;;4987312;28;20026;-77
2021/10/15 00:54:04;;;;;;;6.70;3.72;;;15.50;74.40;;;;;;4985855;28;20417;-77
2021/10/15 00:56:32;;;;;;;4.18;3.70;;;15.50;74.40;;;;;;5005063;28;20025;-77
2021/10/15 00:59:01;;;;;;;8.30;4.03;;;15.50;74.40;;;;;;4997638;28;20045;-76
2021/10/15 01:01:27;;;;;;;5.68;3.83;;;15.50;74.40;;;;;;4970482;28;20062;-76
2021/10/15 01:03:53;;;;;;;7.70;4.00;;;15.50;74.40;;;;;;4974425;28;20026;-77
2021/10/15 01:06:19;;;;;;;6.07;3.15;;;15.50;74.40;;;;;;5007276;28;20378;-76
2021/10/15 01:08:47;;;;;;;4.47;3.08;;;15.50;74.40;;;;;;4998191;28;20462;-77
2021/10/15 01:11:15;;;;;;;4.43;3.83;;;15.60;74.60;;;;;;4987332;28;20037;-76
2021/10/15 01:13:41;;;;;;;3.67;3.38;;;15.50;74.40;;;;;;5002156;28;20046;-77
2021/10/15 01:16:11;;;;;;;3.25;2.88;;;15.50;74.50;;;;;;4987024;28;20030;-76
2021/10/15 01:18:38;;;;;;;5.20;3.20;;;15.50;74.50;;;;;;4987235;28;20041;-76
2021/10/15 01:21:06;;;;;;;4.03;2.63;;;15.60;74.70;;;;;;4987184;28;20037;-77
2021/10/15 01:23:32;;;;;;;5.80;3.17;;;15.50;74.50;;;;;;5001672;28;20037;-77
2021/10/15 01:25:58;;;;;;;4.15;3.05;;;15.50;74.50;;;;;;5000922;28;20140;-76
2021/10/15 01:28:26;;;;;;;4.28;3.88;;;15.60;74.70;;;;;;5002032;28;20030;-76
2021/10/15 01:30:53;;;;;;;3.47;2.35;;;15.50;74.50;;;;;;4985871;28;20524;-76
2021/10/15 01:33:19;;;;;;;5.30;3.50;;;15.50;74.50;;;;;;4985209;28;20593;-76
2021/10/15 01:35:45;;;;;;;4.80;2.70;;;15.60;74.70;;;;;;4989171;28;20482;-76
2021/10/15 01:38:12;;;;;;;4.35;3.20;;;15.50;74.60;;;;;;4988316;28;20121;-76
2021/10/15 01:40:38;;;;;;;4.40;2.90;;;15.50;74.70;;;;;;4988315;28;20457;-76
2021/10/15 01:43:04;;;;;;;3.67;2.70;;;15.50;74.60;;;;;;4988517;28;20034;-76
2021/10/15 01:45:32;;;;;;;4.40;2.78;;;15.60;74.80;;;;;;4988216;28;20045;-75
2021/10/15 01:47:59;;;;;;;4.50;2.97;;;15.50;74.60;;;;;;4991468;28;20051;-75
2021/10/15 01:50:27;;;;;;;5.75;3.10;;;15.50;74.60;;;;;;4991674;28;20129;-76
2021/10/15 01:52:53;;;;;;;4.05;3.35;;;15.50;74.60;;;;;;4990240;28;20049;-77
2021/10/15 01:55:20;;;;;;;6.70;2.72;;;15.50;74.60;;;;;;5000307;28;20026;-76
2021/10/15 01:57:47;;;;;;;7.03;3.03;;;15.50;74.60;;;;;;5010787;28;20034;-76
2021/10/15 02:00:14;;;;;;;4.63;2.58;;;15.50;74.60;;;;;;5011497;28;20117;-77
2021/10/15 02:02:43;;;;;;;5.50;3.03;;;15.50;74.70;;;;;;5026065;28;20034;-77
2021/10/15 02:05:12;;;;;;;5.45;2.70;;;15.50;74.70;;;;;;5013208;28;20088;-77
2021/10/15 02:07:39;;;;;;;4.28;3.40;;;15.50;74.70;;;;;;5001526;28;20050;-76
2021/10/15 02:10:07;;;;;;;5.25;2.97;;;15.50;74.70;;;;;;4990994;28;20031;-76
2021/10/15 02:12:33;;;;;;;6.60;3.20;;;15.50;74.70;;;;;;4975682;28;20470;-77
2021/10/15 02:14:58;;;;;;;4.35;2.70;;;15.50;74.70;;;;;;4975693;28;20114;-76
2021/10/15 02:17:24;;;;;;;6.45;3.38;;;15.50;74.80;;;;;;4975436;28;20030;-77
2021/10/15 02:19:50;;;;;;;6.75;3.20;;;15.50;74.80;;;;;;4975936;28;20038;-76
2021/10/15 02:22:16;;;;;;;3.88;2.92;;;15.50;74.80;;;;;;4975557;28;20035;-76
2021/10/15 02:24:43;;;;;;;3.80;2.75;;;15.50;74.80;;;;;;4981958;28;20366;-77
2021/10/15 02:27:09;;;;;;;4.30;2.92;;;15.50;74.90;;;;;;5014600;28;20034;-75
2021/10/15 02:29:35;;;;;;;5.68;3.03;;;15.50;74.90;;;;;;5014727;28;20040;-76
2021/10/15 02:32:01;;;;;;;4.57;2.65;;;15.40;74.70;;;;;;5014618;28;20038;-76
2021/10/15 02:34:26;;;;;;;7.80;3.00;;;15.50;74.90;;;;;;5014350;28;20029;-76
2021/10/15 02:36:52;;;;;;;5.38;2.78;;;15.50;74.90;;;;;;5013098;28;20026;-77
2021/10/15 02:39:20;;;;;;;5.97;2.63;;;15.50;74.90;;;;;;5029643;28;20037;-76
2021/10/15 02:41:46;;;;;;;6.88;2.95;;;15.40;74.80;;;;;;5014233;28;20040;-76
2021/10/15 02:44:13;;;;;;;7.15;2.78;;;15.50;75.00;;;;;;5013926;28;20037;-76
2021/10/15 02:46:42;;;;;;;3.67;2.88;;;15.40;74.90;;;;;;5014126;28;20505;-77
2021/10/15 02:49:08;;;;;;;4.72;3.25;;;15.50;75.00;;;;;;5014159;28;20030;-76
2021/10/15 02:51:35;;;;;;;7.15;2.40;;;15.50;75.10;;;;;;5014433;28;20520;-76
2021/10/15 02:54:01;;;;;;;4.82;3.03;;;15.40;74.90;;;;;;5014291;28;20104;-77
2021/10/15 02:56:27;;;;;;;5.75;2.85;;;15.50;75.10;;;;;;5013519;28;20056;-77
2021/10/15 02:58:53;;;;;;;4.53;2.45;;;15.40;75.00;;;;;;5014011;28;20029;-77
2021/10/15 03:01:19;;;;;;;5.25;3.22;;;15.40;75.00;;;;;;5014177;28;20056;-76
2021/10/15 03:03:48;;;;;;;6.75;2.92;;;15.40;75.00;;;;;;5013805;28;20113;-77
2021/10/15 03:06:15;;;;;;;5.10;3.15;;;15.40;75.00;;;;;;5013923;28;20124;-76
2021/10/15 03:08:41;;;;;;;6.65;2.63;;;15.40;75.00;;;;;;5029209;28;20026;-78
2021/10/15 03:11:07;;;;;;;5.47;3.00;;;15.40;75.10;;;;;;5013978;28;20038;-77
2021/10/15 03:13:33;;;;;;;6.18;3.03;;;15.40;75.60;;;;;;5012470;28;20037;-77
2021/10/15 03:15:59;;;;;;;4.53;2.22;;;15.40;75.10;;;;;;5028207;28;20448;-77
2021/10/15 03:18:25;;;;;;;5.88;2.80;;;15.40;75.10;;;;;;5013884;28;20026;-77
2021/10/15 03:20:51;;;;;;;6.97;3.45;;;15.40;75.20;;;;;;5013239;28;20041;-77
2021/10/15 03:23:17;;;;;;;6.82;3.17;;;15.40;75.20;;;;;;5014075;28;20577;-77
2021/10/15 03:25:43;;;;;;;4.68;3.28;;;15.40;75.30;;;;;;5011533;28;20030;-77
2021/10/15 03:28:09;;;;;;;4.03;2.95;;;15.40;75.30;;;;;;5013509;28;20040;-77
2021/10/15 03:30:35;;;;;;;5.88;3.00;;;15.40;75.30;;;;;;5013365;28;20029;-77
2021/10/15 03:33:03;;;;;;;5.07;2.83;;;15.40;75.40;;;;;;5013428;28;20033;-77
2021/10/15 03:35:29;;;;;;;5.25;2.80;;;15.30;75.20;;;;;;5013255;28;20081;-77
2021/10/15 03:37:55;;;;;;;5.90;3.05;;;15.30;75.20;;;;;;5013578;28;20096;-77
2021/10/15 03:40:21;;;;;;;8.52;3.90;;;15.30;75.30;;;;;;5012842;28;20029;-77
2021/10/15 03:42:47;;;;;;;5.32;2.78;;;15.30;75.30;;;;;;5012840;28;20034;-77
2021/10/15 03:45:13;;;;;;;3.53;2.72;;;15.30;75.30;;;;;;5013137;28;20033;-77
2021/10/15 03:47:40;;;;;;;4.25;2.75;;;15.30;75.30;;;;;;5012884;28;20061;-77
2021/10/15 03:50:08;;;;;;;6.20;2.97;;;15.30;75.30;;;;;;5013057;28;20107;-78
2021/10/15 03:52:34;;;;;;;7.32;3.10;;;15.30;75.40;;;;;;5013381;28;20042;-76
2021/10/15 03:55:00;;;;;;;4.07;2.95;;;15.30;75.30;;;;;;5012587;28;20041;-77
2021/10/15 03:57:26;;;;;;;5.05;3.33;;;15.30;75.40;;;;;;5012776;28;20042;-77
2021/10/15 03:59:52;;;;;;;3.53;3.22;;;15.30;75.40;;;;;;5011578;28;20026;-77
2021/10/15 04:02:18;;;;;;;6.63;3.25;;;15.30;75.40;;;;;;5013354;28;20029;-77
2021/10/15 04:04:44;;;;;;;4.80;3.83;;;15.30;75.50;;;;;;5012858;28;20030;-77
2021/10/15 04:07:10;;;;;;;5.07;3.08;;;15.30;75.50;;;;;;5012791;28;20040;-77
2021/10/15 04:09:36;;;;;;;6.72;4.05;;;15.20;75.30;;;;;;5012815;28;20037;-77
2021/10/15 04:12:02;;;;;;;5.78;3.45;;;15.20;75.30;;;;;;5012419;28;20109;-77
2021/10/15 04:14:28;;;;;;;5.80;3.28;;;15.20;75.40;;;;;;5012677;28;20040;-76
2021/10/15 04:16:53;;;;;;;4.18;3.03;;;15.20;75.40;;;;;;5012573;28;20466;-77
2021/10/15 04:19:19;;;;;;;7.32;3.50;;;15.20;75.40;;;;;;5012220;28;20033;-76
2021/10/15 04:21:45;;;;;;;5.00;3.42;;;15.20;75.50;;;;;;5012646;28;20037;-77
2021/10/15 04:24:11;;;;;;;4.75;3.67;;;15.30;75.70;;;;;;5012788;28;20026;-77
2021/10/15 04:26:37;;;;;;;5.25;3.67;;;15.30;75.70;;;;;;5010746;28;20041;-77
2021/10/15 04:29:03;;;;;;;4.82;3.42;;;15.20;75.50;;;;;;5012068;28;20056;-77
2021/10/15 04:31:29;;;;;;;4.40;3.17;;;15.20;75.60;;;;;;5012323;28;20500;-77
2021/10/15 04:33:55;;;;;;;5.57;3.30;;;15.30;75.80;;;;;;5010991;28;20042;-76
2021/10/15 04:36:21;;;;;;;8.07;3.38;;;15.20;75.60;;;;;;5012068;28;20501;-76
2021/10/15 04:38:47;;;;;;;6.80;3.60;;;15.30;75.80;;;;;;5012864;28;20033;-76
2021/10/15 04:41:13;;;;;;;5.78;3.40;;;15.20;75.60;;;;;;5012309;28;20025;-77
2021/10/15 04:43:39;;;;;;;5.85;3.00;;;15.30;75.80;;;;;;5010733;28;20056;-77
2021/10/15 04:46:05;;;;;;;5.88;4.32;;;15.30;75.80;;;;;;5012088;28;20049;-76
2021/10/15 04:48:31;;;;;;;6.45;3.95;;;15.30;75.80;;;;;;4988123;28;20471;-77
2021/10/15 04:50:57;;;;;;;5.65;4.03;;;15.30;75.80;;;;;;4989272;28;20403;-76
2021/10/15 04:53:23;;;;;;;7.00;4.38;;;15.30;75.90;;;;;;4989066;28;20042;-76
2021/10/15 04:55:49;;;;;;;5.40;3.80;;;15.30;75.80;;;;;;5001185;28;20527;-77
2021/10/15 04:58:15;;;;;;;5.07;3.67;;;15.30;75.80;;;;;;5000285;28;20045;-77
2021/10/15 05:00:41;;;;;;;6.22;3.90;;;15.30;75.80;;;;;;4987565;28;20482;-76
2021/10/15 05:03:07;;;;;;;6.82;3.78;;;15.20;75.60;;;;;;4988030;28;20027;-77
2021/10/15 05:05:34;;;;;;;6.28;3.72;;;15.30;75.80;;;;;;4983279;28;20022;-77
2021/10/15 05:08:01;;;;;;;8.95;3.88;;;15.30;75.80;;;;;;4986890;28;20469;-77
2021/10/15 05:10:28;;;;;;;5.68;3.65;;;15.20;75.70;;;;;;4986447;28;20038;-77
2021/10/15 05:12:55;;;;;;;5.05;3.17;;;15.30;75.80;;;;;;4986418;28;20044;-76
2021/10/15 05:15:22;;;;;;;7.60;4.10;;;15.30;75.90;;;;;;4985554;28;20153;-76
2021/10/15 05:17:48;;;;;;;5.38;3.58;;;15.30;75.90;;;;;;4987476;28;20037;-78
2021/10/15 05:20:19;;;;;;;6.18;3.45;;;15.30;75.90;;;;;;4986955;28;20026;-77
2021/10/15 05:22:45;;;;;;;6.30;3.40;;;15.20;75.70;;;;;;4987197;28;20084;-76
2021/10/15 05:25:13;;;;;;;6.18;3.33;;;15.30;75.90;;;;;;4984654;28;20030;-78
2021/10/15 05:27:39;;;;;;;7.72;4.38;;;15.30;75.90;;;;;;4979256;28;20359;-77
2021/10/15 05:30:07;;;;;;;6.20;3.80;;;15.20;75.70;;;;;;4986119;28;20034;-77
2021/10/15 05:32:34;;;;;;;7.70;4.15;;;15.20;75.80;;;;;;4986296;28;20050;-77
2021/10/15 05:35:00;;;;;;;7.57;3.40;;;15.20;75.70;;;;;;4985571;28;20029;-76
2021/10/15 05:37:26;;;;;;;4.50;3.15;;;15.20;75.70;;;;;;4987897;28;20037;-77
2021/10/15 05:39:55;;;;;;;6.40;3.42;;;15.20;75.80;;;;;;4988367;28;20027;-78
2021/10/15 05:42:21;;;;;;;7.53;4.55;;;15.20;75.70;;;;;;4990660;28;20126;-78
2021/10/15 05:44:47;;;;;;;7.13;3.28;;;15.10;75.60;;;;;;5005988;28;20034;-77
2021/10/15 05:47:14;;;;;;;14.43;4.55;;;15.10;75.60;;;;;;5021806;28;20046;-77
2021/10/15 05:49:40;;;;;;;8.02;3.92;;;15.10;75.70;;;;;;4986830;28;20034;-77
2021/10/15 05:52:14;;;;;;;5.03;3.33;;;15.00;75.60;;;;;;4989458;28;20382;-76
2021/10/15 05:54:50;;;;;;;5.60;3.58;;;15.00;75.60;;;;;;5006435;28;20404;-76
2021/10/15 05:59:43;;;;;;;7.68;4.90;;;15.00;75.80;;;;;;4985753;28;20061;-79
2021/10/15 06:02:09;;;;;;;6.68;4.20;;;14.90;76.00;;;;;;4986649;28;20030;-78
2021/10/15 06:15:34;;;;;;;5.40;3.78;;;14.80;76.60;;;;;;4985216;28;20124;-78
2021/10/15 06:18:16;;;;;;;6.15;4.40;;;14.80;76.70;;;;;;4991306;28;20030;-79
2021/10/15 06:20:42;;;;;;;6.43;3.75;;;14.70;76.60;;;;;;5022055;28;20046;-77
2021/10/15 06:23:09;;;;;;;8.05;3.67;;;14.70;76.70;;;;;;4993232;28;20400;-78
2021/10/15 06:25:35;;;;;;;9.10;4.32;;;14.70;76.80;;;;;;4990092;28;20433;-78
2021/10/15 06:28:02;;;;;;;10.05;4.03;;;14.70;76.90;;;;;;4969259;28;20126;-77
2021/10/15 06:30:30;;;;;;;9.05;4.13;;;14.70;77.00;;;;;;4985258;28;20035;-78
2021/10/15 06:32:56;;;;;;;6.65;3.55;;;14.60;76.90;;;;;;4989535;28;20239;-83
2021/10/15 06:35:24;;;;;;;6.95;3.88;;;14.60;76.90;;;;;;4985840;28;20026;-79
2021/10/15 06:37:50;;;;;;;8.52;6.07;;;14.60;76.90;;;;;;4990770;28;20036;-79
2021/10/15 06:40:17;;;;;;;8.55;4.07;;;14.60;77.00;;;;;;5006877;28;20034;-78
2021/10/15 06:42:43;;;;;;;6.07;3.97;;;14.60;77.00;;;;;;5014343;28;20034;-78
2021/10/15 06:45:10;;;;;;;6.60;4.05;;;14.60;77.10;;;;;;4985184;28;20501;-78
2021/10/15 06:47:36;;;;;;;6.55;3.63;;;14.60;77.10;;;;;;4984790;28;20061;-79
2021/10/15 06:50:04;;;;;;;9.25;3.83;;;14.50;76.90;;;;;;4967986;28;20038;-79
2021/10/15 06:52:36;;;;;;;4.90;3.75;;;14.50;76.90;;;;;;4991562;28;20493;-78
2021/10/15 06:55:06;;;;;;;5.18;3.55;;;14.50;76.90;;;;;;5008283;28;20084;-79
2021/10/15 06:57:32;;;;;;;7.35;3.83;;;14.50;76.90;;;;;;4986834;28;20045;-79
2021/10/15 06:59:58;;;;;;;7.10;4.25;;;14.50;76.90;;;;;;4981748;28;20045;-81
2021/10/15 07:02:24;;;;;;;6.85;4.35;;;14.50;76.90;;;;;;4990805;28;20161;-79
2021/10/15 07:04:50;;;;;;;9.10;4.78;;;14.50;76.90;;;;;;4989724;28;20549;-81
2021/10/15 07:07:16;;;;;;;7.97;3.97;;;14.50;76.90;;;;;;4989854;28;20180;-80
2021/10/15 07:09:42;;;;;;;6.72;3.67;;;14.40;76.70;;;;;;5009140;28;20087;-79
2021/10/15 07:12:08;;;;;;;6.47;4.55;;;14.50;76.90;;;;;;5007558;28;20464;-80
2021/10/15 07:14:34;;;;;;;7.88;4.18;;;14.40;76.70;;;;;;4989897;28;20038;-80
2021/10/15 07:16:59;;;;;;;6.68;4.25;;;14.40;76.70;;;;;;4990248;28;20032;-80
2021/10/15 07:19:25;;;;;;;6.70;4.60;;;14.40;76.70;;;;;;5004475;28;20034;-79
2021/10/15 07:21:51;;;;;;;7.07;4.72;;;14.40;76.70;;;;;;4987417;28;20473;-80
2021/10/15 07:24:17;;;;;;;8.32;4.13;;;14.40;77.20;;;;;;4987194;28;20030;-80
2021/10/15 07:26:43;;;;;;;5.57;3.70;;;14.40;76.70;;;;;;4989980;28;20038;-80
2021/10/15 07:29:09;;;;;;;7.80;3.95;;;14.40;76.80;;;;;;4983803;28;20099;-78
2021/10/15 07:31:35;;;;;;;7.32;3.83;;;14.40;76.80;;;;;;4990807;28;20034;-79
2021/10/15 07:34:02;;;;;;;7.03;4.57;;;14.40;76.80;;;;;;4989915;28;20049;-80
2021/10/15 07:36:28;;;;;;;5.18;3.70;;;14.30;76.70;;;;;;4989962;28;20125;-78
2021/10/15 07:38:54;;;;;;;7.72;4.18;;;14.30;76.60;;;;;;5002115;28;20119;-78
2021/10/15 07:41:20;;;;;;;7.15;4.43;;;14.30;76.70;;;;;;5007761;28;20033;-78
2021/10/15 07:43:50;;;;;;;6.00;4.35;;;14.30;76.70;;;;;;4994064;28;20042;-79
2021/10/15 07:46:18;;;;;;;10.30;4.28;;;14.30;76.80;;;;;;4989135;28;20042;-80
2021/10/15 07:48:44;;;;;;;9.43;4.80;;;14.30;76.80;;;;;;4990026;28;20049;-79
2021/10/15 07:51:11;;;;;;;6.70;4.10;;;14.30;76.80;;;;;;4988761;28;20030;-82
2021/10/15 07:53:37;;;;;;;5.00;3.60;;;14.30;76.80;;;;;;5004587;28;20058;-80
2021/10/15 07:56:03;;;;;;;6.28;4.47;;;14.30;76.80;;;;;;5002949;28;20083;-80
2021/10/15 07:58:29;;;;;;;6.50;4.30;;;14.30;76.80;;;;;;4999391;28;20052;-80
2021/10/15 08:00:55;;;;;;;4.80;3.70;;;14.30;76.80;;;;;;4989970;28;20030;-79
2021/10/15 08:03:21;;;;;;;9.77;4.35;;;14.40;77.00;;;;;;4999269;28;20442;-78
2021/10/15 08:05:47;;;;;;;6.63;3.70;;;14.40;77.50;;;;;;5009106;28;20061;-78
2021/10/15 08:08:13;;;;;;;5.97;3.60;;;14.40;77.00;;;;;;5000217;28;20030;-81
2021/10/15 08:10:41;;;;;;;7.22;3.78;;;14.40;76.90;;;;;;4988161;28;20038;-79
2021/10/15 08:13:07;;;;;;;7.97;4.05;;;14.40;76.90;;;;;;5003238;28;20467;-80
2021/10/15 08:15:33;;;;;;;8.10;4.30;;;14.40;76.80;;;;;;4971369;28;20018;-78
2021/10/15 08:17:59;;;;;;;7.43;3.90;;;14.50;77.00;;;;;;4989228;28;20042;-78
2021/10/15 08:20:26;;;;;;;4.85;4.38;;;14.50;77.50;;;;;;4989012;28;20496;-77
2021/10/15 08:22:53;;;;;;;5.70;3.95;;;14.50;76.90;;;;;;4988880;28;20458;-78
2021/10/15 08:25:19;;;;;;;4.75;3.00;;;14.50;76.90;;;;;;4996646;28;20133;-79
2021/10/15 08:27:45;;;;;;;6.88;3.85;;;14.50;76.80;;;;;;5008024;28;20374;-81
2021/10/15 08:30:12;;;;;;;4.70;3.50;;;14.50;76.80;;;;;;5006693;28;20029;-80
2021/10/15 08:32:38;;;;;;;6.43;4.35;;;14.50;76.80;;;;;;5017265;28;20061;-79
2021/10/15 08:35:05;;;;;;;4.38;3.53;;;14.50;76.90;;;;;;4988686;28;20034;-78
2021/10/15 08:37:31;;;;;;;5.57;3.50;;;14.50;76.80;;;;;;4988549;28;20085;-78
2021/10/15 08:39:57;;;;;;;6.88;3.63;;;14.60;76.90;;;;;;4988630;28;20034;-79
2021/10/15 08:42:23;;;;;;;8.52;3.33;;;14.60;76.90;;;;;;4988505;28;20056;-81
2021/10/15 08:44:49;;;;;;;6.65;3.42;;;14.70;77.00;;;;;;4988040;28;20037;-80
2021/10/15 08:47:17;;;;;;;5.40;3.30;;;14.70;76.90;;;;;;4986959;28;20049;-77
2021/10/15 08:49:44;;;;;;;3.85;2.58;;;14.70;76.80;;;;;;5003245;28;20084;-80
2021/10/15 08:52:12;;;;;;;5.43;2.70;;;14.80;76.90;;;;;;4988308;28;20110;-79
2021/10/15 08:54:38;;;;;;;4.57;3.15;;;14.90;77.00;;;;;;4991481;28;20048;-79
2021/10/15 08:57:05;;;;;;;3.75;2.67;;;15.00;77.00;;;;;;4996563;28;20394;-81
2021/10/15 08:59:39;;;;;;;4.30;2.90;;;15.00;76.90;;;;;;4979161;28;20077;-81
2021/10/15 09:02:13;;;;;;;5.72;2.65;;;15.10;76.80;;;;;;4968214;28;20037;-79
2021/10/15 09:04:46;;;;;;;5.03;2.80;;;15.30;77.50;;;;;;4988164;28;20034;-83
2021/10/15 09:07:14;;;;;;;6.15;2.53;;;15.30;76.80;;;;;;4984417;28;20088;-79
2021/10/15 09:09:41;;;;;;;3.70;2.90;;;15.40;76.70;;;;;;4987844;28;20220;-78
2021/10/15 09:12:08;;;;;;;5.47;3.45;;;15.40;76.60;;;;;;4987598;28;20034;-78
2021/10/15 09:14:36;;;;;;;3.92;2.10;;;15.60;76.70;;;;;;4969025;28;20030;-81
2021/10/15 09:17:16;;;;;;;3.67;2.38;;;15.70;76.70;;;;;;4985270;28;20027;-86
2021/10/15 09:19:47;;;;;;;4.88;2.53;;;15.70;76.40;;;;;;4979224;28;20034;-82
2021/10/15 09:22:25;;;;;;;2.97;2.08;;;15.80;76.40;;;;;;4987995;28;20031;-83
2021/10/15 09:24:55;;;;;;;4.50;2.22;;;15.90;76.30;;;;;;4992675;28;20088;-81
2021/10/15 09:27:35;;;;;;;6.15;2.03;;;16.00;76.30;;;;;;4989087;28;20035;-81
2021/10/15 09:30:19;;;;;;;3.22;1.90;;;16.00;76.00;;;;;;4968208;28;20042;-83
2021/10/15 09:32:46;;;;;;;4.65;2.25;;;16.10;76.00;;;;;;4988932;28;20038;-84
2021/10/15 09:35:22;;;;;;;3.47;1.70;;;16.20;76.00;;;;;;4987012;28;20046;-82
2021/10/15 09:37:50;;;;;;;2.33;1.45;;;16.20;75.80;;;;;;4987841;28;20117;-84
2021/10/15 09:40:20;;;;;;;2.00;1.63;;;16.30;75.80;;;;;;4987086;28;20038;-83
2021/10/15 09:42:48;;;;;;;2.67;1.52;;;16.30;75.50;;;;;;4993584;28;20041;-80
2021/10/15 09:45:15;;;;;;;2.97;2.08;;;16.40;75.50;;;;;;5006449;28;20042;-82
2021/10/15 09:47:42;;;;;;;3.05;1.88;;;16.50;75.50;;;;;;5003296;28;20058;-84
2021/10/15 09:50:09;;;;;;;5.95;2.58;;;16.50;75.20;;;;;;4986775;28;20445;-83
2021/10/15 09:52:50;;;;;;;3.47;1.50;;;16.60;75.20;;;;;;4984248;28;20042;-84
2021/10/15 09:55:31;;;;;;;2.17;1.45;;;16.70;75.10;;;;;;5011402;28;20038;-80
2021/10/15 09:58:17;;;;;;;2.22;1.63;;;16.80;75.00;;;;;;4985926;28;20034;-82
2021/10/15 10:00:45;;;;;;;3.40;1.52;;;17.00;74.90;;;;;;4985693;28;20470;-84
2021/10/15 10:03:13;;;;;;;3.55;2.05;;;17.20;74.90;;;;;;5001979;28;20033;-81
2021/10/15 10:05:39;;;;;;;3.85;2.15;;;17.20;74.50;;;;;;5001486;28;20046;-82
2021/10/15 10:08:06;;;;;;;2.95;1.90;;;17.30;74.40;;;;;;4984139;28;20049;-83
2021/10/15 10:10:36;;;;;;;3.28;1.73;;;17.40;74.20;;;;;;4974926;28;20035;-83
2021/10/15 10:13:04;;;;;;;5.00;1.75;;;17.40;73.90;;;;;;4987361;28;20042;-87
2021/10/15 10:15:34;;;;;;;3.17;1.50;;;17.50;73.90;;;;;;4986859;28;20027;-84
2021/10/15 10:20:42;;;;;;;5.15;1.92;;;17.50;73.40;;;;;;5006985;28;20038;-79
2021/10/15 10:23:13;;;;;;;4.05;1.50;;;17.50;73.30;;;;;;4997424;28;20104;-83
2021/10/15 10:25:41;;;;;;;2.13;1.40;;;17.60;73.30;;;;;;5002748;28;20038;-84
2021/10/15 10:28:19;;;;;;;2.53;1.77;;;17.70;73.40;;;;;;5003236;28;20026;-85
2021/10/15 10:30:50;;;;;;;4.78;1.83;;;17.70;73.10;;;;;;4990673;28;20050;-81
2021/10/15 10:33:17;;;;;;;1.85;1.40;;;17.80;73.10;;;;;;4990515;28;20038;-82
2021/10/15 10:35:44;;;;;;;1.90;1.40;;;17.90;73.00;;;;;;4991112;28;20027;-81
2021/10/15 10:38:19;;;;;;;2.38;1.60;;;18.00;72.90;;;;;;4989352;28;20158;-79
2021/10/15 10:41:00;;;;;;;5.20;1.73;;;18.00;72.50;;;;;;4990704;28;20498;-87
2021/10/15 10:43:44;;;;;;;3.78;1.75;;;18.10;72.40;;;;;;4992011;28;20034;-90
2021/10/15 10:46:12;;;;;;;2.20;1.60;;;18.10;72.30;;;;;;4991023;28;20054;-84
2021/10/15 10:48:50;;;;;;;1.85;1.20;;;18.10;72.20;;;;;;4991427;28;20490;-80
2021/10/15 10:51:21;;;;;;;3.45;1.77;;;18.10;71.90;;;;;;4991882;28;20050;-78
2021/10/15 10:54:00;;;;;;;5.68;2.38;;;18.20;71.90;;;;;;4990791;28;20045;-82
2021/10/15 10:56:39;;;;;;;2.60;1.92;;;18.30;71.90;;;;;;5008126;28;20045;-80
2021/10/15 10:59:30;;;;;;;4.32;2.28;;;18.30;71.80;;;;;;4995758;28;20030;-79
2021/10/15 11:02:11;;;;;;;3.50;2.03;;;18.40;71.90;;;;;;4983163;28;20069;-76
2021/10/15 11:04:38;;;;;;;7.22;1.88;;;18.50;71.90;;;;;;4970911;28;20089;-76
2021/10/15 11:07:26;;;;;;;5.68;1.60;;;18.60;71.90;;;;;;4971088;28;20034;-75
2021/10/15 11:09:54;;;;;;;2.35;1.63;;;18.70;71.80;;;;;;4990108;28;20026;-77
2021/10/15 11:12:26;;;;;;;4.07;1.55;;;18.80;71.80;;;;;;4989618;28;20416;-75
2021/10/15 11:14:59;;;;;;;3.40;1.88;;;18.90;71.50;;;;;;4982973;28;20066;-78
2021/10/15 11:17:31;;;;;;;2.22;1.77;;;19.00;71.50;;;;;;4980375;28;20154;-77
2021/10/15 11:20:20;;;;;;;4.60;1.70;;;19.10;71.30;;;;;;4970526;28;20438;-80
2021/10/15 11:22:59;;;;;;;4.45;2.42;;;19.20;71.00;;;;;;4976006;28;20085;-80
2021/10/15 11:25:34;;;;;;;2.90;2.10;;;19.20;69.90;;;;;;4997425;28;20081;-77
2021/10/15 11:28:15;;;;;;;4.93;2.25;;;19.10;69.10;;;;;;5003545;28;20030;-80
2021/10/15 11:30:44;;;;;;;3.22;1.83;;;19.00;68.40;;;;;;4989525;28;20050;-78
2021/10/15 11:33:16;;;;;;;3.20;1.80;;;19.00;68.30;;;;;;5004923;28;20100;-77
2021/10/15 11:35:45;;;;;;;3.00;2.17;;;18.90;67.60;;;;;;5004513;28;20120;-78
2021/10/15 11:38:22;;;;;;;5.15;2.00;;;18.90;67.60;;;;;;4987661;28;20046;-80
2021/10/15 11:40:51;;;;;;;7.45;2.88;;;18.90;67.00;;;;;;4988038;28;20367;-76
2021/10/15 11:43:22;;;;;;;4.88;2.25;;;18.90;67.10;;;;;;4988810;28;20038;-78
2021/10/15 11:46:09;;;;;;;6.80;2.40;;;18.90;66.70;;;;;;5004617;28;20038;-80
2021/10/15 11:48:41;;;;;;;5.18;2.55;;;18.90;66.70;;;;;;4990078;28;20053;-79
2021/10/15 11:51:18;;;;;;;5.82;2.53;;;18.90;66.80;;;;;;5005311;28;20084;-79
2021/10/15 11:53:47;;;;;;;10.50;3.60;;;19.00;67.10;;;;;;5003080;28;20068;-79
2021/10/15 11:56:17;;;;;;;5.22;2.70;;;19.10;67.20;;;;;;5008692;28;20061;-77
2021/10/15 11:58:51;;;;;;;5.97;2.80;;;19.10;67.10;;;;;;4998986;28;20084;-80
2021/10/15 12:01:28;;;;;;;8.02;2.60;;;19.20;67.30;;;;;;4988492;28;20497;-79
2021/10/15 12:03:56;;;;;;;3.45;2.65;;;19.30;67.30;;;;;;5002373;28;20030;-77
2021/10/15 12:06:28;;;;;;;4.90;2.30;;;19.30;67.20;;;;;;5007080;28;20091;-78
2021/10/15 12:09:00;;;;;;;5.72;2.60;;;19.40;67.10;;;;;;5010827;28;20529;-77
2021/10/15 12:11:41;;;;;;;3.55;2.92;;;19.40;67.00;;;;;;4987556;28;20085;-79
2021/10/15 12:14:26;;;;;;;5.43;2.63;;;19.50;66.90;;;;;;4987064;28;20035;-79
2021/10/15 12:17:00;;;;;;;5.47;2.65;;;19.50;66.70;;;;;;4986434;28;20105;-79
2021/10/15 12:19:37;;;;;;;6.97;2.95;;;19.50;66.50;;;;;;4988856;28;20590;-81
2021/10/15 12:22:12;;;;;;;5.90;2.75;;;19.50;66.40;;;;;;4988401;28;20033;-78
2021/10/15 12:24:47;;;;;;;8.07;2.17;;;19.50;66.30;;;;;;4976050;28;20065;-79
2021/10/15 12:27:21;;;;;;;5.95;3.53;;;19.50;66.20;;;;;;5008926;28;20084;-81
2021/10/15 12:29:51;;;;;;;8.30;3.13;;;19.40;65.90;;;;;;5008252;28;20029;-78
2021/10/15 12:32:30;;;;;;;4.43;2.50;;;19.40;66.00;;;;;;5022468;28;20041;-80
2021/10/15 12:35:28;;;;;;;6.10;2.70;;;19.30;65.80;;;;;;4988710;28;20042;-81
2021/10/15 12:37:57;;;;;;;5.70;2.55;;;19.20;65.80;;;;;;4969914;28;20208;-76
2021/10/15 12:40:34;;;;;;;5.60;2.58;;;19.20;66.00;;;;;;5008690;28;20040;-80
2021/10/15 12:43:06;;;;;;;5.30;2.67;;;19.10;65.90;;;;;;5001559;28;20490;-79
2021/10/15 12:45:34;;;;;;;3.45;2.67;;;19.10;66.10;;;;;;4989281;28;20501;-80
2021/10/15 12:48:05;;;;;;;5.30;3.55;;;19.00;66.00;;;;;;4989482;28;20441;-81
2021/10/15 12:50:55;;;;;;;4.85;2.42;;;19.00;66.00;;;;;;4988604;28;20068;-77
2021/10/15 12:53:21;;;;;;;4.15;2.30;;;19.00;66.00;;;;;;4990596;28;20038;-78
2021/10/15 12:55:58;;;;;;;4.30;2.70;;;19.10;66.20;;;;;;5001733;28;20030;-78
2021/10/15 12:58:26;;;;;;;6.47;2.38;;;19.10;66.00;;;;;;5001728;28;20042;-79
2021/10/15 13:01:00;;;;;;;8.00;2.63;;;19.20;66.20;;;;;;5004189;28;20030;-79
2021/10/15 13:03:28;;;;;;;7.25;3.00;;;19.20;65.90;;;;;;4988935;28;20034;-79
2021/10/15 13:05:56;;;;;;;3.42;2.47;;;19.20;65.90;;;;;;4988662;28;20030;-78
2021/10/15 13:08:24;;;;;;;4.25;2.85;;;19.20;65.80;;;;;;5010632;28;20029;-77